createdAt,value
2023-04-10T00:00:19.400Z,100750.76
2023-04-10T00:02:48.780Z,100751.39
2023-04-10T00:05:18.844Z,100748.80
2023-04-10T00:07:52.010Z,100751.95
2023-04-10T00:10:20.570Z,100749.94
2023-04-10T00:12:56.719Z,100752.39
2023-04-10T00:15:25.359Z,100750.04
2023-04-10T00:18:00.602Z,100751.95
2023-04-10T00:20:29.378Z,100748.31
2023-04-10T00:23:00.512Z,100747.29
2023-04-10T00:25:31.292Z,100747.56
2023-04-10T00:28:00.244Z,100747.60
2023-04-10T00:30:28.694Z,100744.03
2023-04-10T00:33:12.996Z,100745.13
2023-04-10T00:35:41.433Z,100747.95
2023-04-10T00:38:09.734Z,100746.19
2023-04-10T00:40:39.199Z,100745.44
2023-04-10T00:43:08.306Z,100745.94
2023-04-10T00:45:39.044Z,100747.24
2023-04-10T00:48:14.942Z,100743.42
2023-04-10T00:50:43.250Z,100744.69
2023-04-10T00:53:11.833Z,100748.33
2023-04-10T00:55:40.464Z,100746.16
2023-04-10T00:58:08.898Z,100743.50
2023-04-10T01:00:43.289Z,100744.82
2023-04-10T01:03:13.852Z,100745.18
2023-04-10T01:05:45.092Z,100746.23
2023-04-10T01:08:31.154Z,100742.20
2023-04-10T01:11:06.392Z,100742.48
2023-04-10T01:13:34.826Z,100743.58
2023-04-10T01:16:09.756Z,100741.89
2023-04-10T01:18:49.382Z,100742.42
2023-04-10T01:21:19.960Z,100739.41
2023-04-10T03:31:27.360Z,100760.85
2023-04-10T03:40:15.372Z,100764.34
2023-04-10T03:46:17.523Z,100766.02
2023-04-10T03:49:24.679Z,100766.58
2023-04-10T03:52:30.936Z,100766.08
2023-04-10T03:55:20.242Z,100762.23
2023-04-10T03:57:58.557Z,100767.24
2023-04-10T04:04:15.546Z,100775.06
2023-04-10T04:10:50.963Z,100779.16
2023-04-10T04:22:05.951Z,100782.26
2023-04-10T04:25:29.587Z,100788.06
2023-04-10T04:55:24.269Z,100801.39
2023-04-10T04:58:07.881Z,100805.52
2023-04-10T05:00:58.828Z,100805.05
2023-04-10T05:03:43.699Z,100808.38
2023-04-10T05:06:33.737Z,100810.27
2023-04-10T05:09:32.631Z,100811.39
2023-04-10T05:12:19.456Z,100815.33
2023-04-10T05:15:10.915Z,100818.95
2023-04-10T05:17:54.809Z,100820.40
2023-04-10T05:20:43.152Z,100823.61
2023-04-10T05:23:38.072Z,100824.06
2023-04-10T05:26:27.630Z,100824.73
2023-04-10T05:29:16.082Z,100823.42
2023-04-10T05:32:10.087Z,100824.27
2023-04-10T05:35:00.881Z,100823.73
2023-04-10T05:37:57.979Z,100823.77
2023-04-10T05:40:38.997Z,100824.94
2023-04-10T05:43:38.520Z,100827.55
2023-04-10T05:46:37.079Z,100830.61
2023-04-10T05:49:16.321Z,100828.04
2023-04-10T05:52:19.415Z,100827.94
2023-04-10T05:54:48.716Z,100829.70
2023-04-10T05:57:34.080Z,100827.70
2023-04-10T06:00:26.824Z,100826.34
2023-04-10T06:03:15.944Z,100830.84
2023-04-10T06:05:52.059Z,100831.39
2023-04-10T06:08:25.978Z,100833.33
2023-04-10T06:10:58.479Z,100837.10
2023-04-10T06:13:32.968Z,100836.84
2023-04-10T06:16:11.646Z,100842.54
2023-04-10T06:18:41.824Z,100842.33
2023-04-10T06:21:14.380Z,100844.64
2023-04-10T06:23:46.913Z,100847.29
2023-04-10T06:26:17.237Z,100847.98
2023-04-10T06:28:46.817Z,100846.58
2023-04-10T06:31:19.083Z,100845.35
2023-04-10T06:33:50.451Z,100847.95
2023-04-10T06:36:21.822Z,100849.56
2023-04-10T06:39:00.681Z,100845.42
2023-04-10T06:41:29.929Z,100843.91
2023-04-10T06:44:12.421Z,100846.64
2023-04-10T06:46:41.572Z,100843.35
2023-04-10T06:49:11.102Z,100845.86
2023-04-10T06:51:40.898Z,100850.02
2023-04-10T06:54:10.224Z,100846.80
2023-04-10T06:56:40.282Z,100849.29
2023-04-10T06:59:09.315Z,100849.58
2023-04-10T07:01:39.014Z,100855.05
2023-04-10T07:04:08.946Z,100854.10
2023-04-10T07:06:40.299Z,100856.19
2023-04-10T07:09:10.923Z,100860.46
2023-04-10T07:11:41.195Z,100862.56
2023-04-10T07:14:11.708Z,100860.38
2023-04-10T07:16:42.716Z,100860.96
2023-04-10T07:19:15.206Z,100862.88
2023-04-10T07:21:44.839Z,100868.27
2023-04-10T07:24:18.515Z,100871.84
2023-04-10T07:26:49.951Z,100871.92
2023-04-10T07:29:19.669Z,100872.72
2023-04-10T07:31:53.354Z,100876.05
2023-04-10T07:34:23.375Z,100876.42
2023-04-10T07:36:53.303Z,100878.83
2023-04-10T07:39:23.653Z,100876.48
2023-04-10T07:41:56.244Z,100880.98
2023-04-10T07:44:32.153Z,100881.80
2023-04-10T07:47:01.833Z,100880.58
2023-04-10T07:49:31.803Z,100883.74
2023-04-10T07:52:05.195Z,100886.80
2023-04-10T07:54:37.762Z,100889.27
2023-04-10T07:57:07.123Z,100886.36
2023-04-10T07:59:36.850Z,100886.75
2023-04-10T08:02:06.702Z,100891.38
2023-04-10T08:04:36.856Z,100889.14
2023-04-10T08:07:07.168Z,100890.92
2023-04-10T08:09:38.076Z,100890.62
2023-04-10T08:12:09.768Z,100888.16
2023-04-10T08:14:39.740Z,100891.02
2023-04-10T08:17:15.978Z,100891.61
2023-04-10T08:19:48.136Z,100888.66
2023-04-10T08:22:19.445Z,100889.10
2023-04-10T08:24:53.941Z,100890.18
2023-04-10T08:27:44.010Z,100891.39
2023-04-10T08:30:13.721Z,100893.06
2023-04-10T08:32:47.878Z,100890.73
2023-04-10T08:35:23.032Z,100890.35
2023-04-10T08:38:07.766Z,100885.95
2023-04-10T08:40:41.329Z,100885.98
2023-04-10T08:43:13.138Z,100883.83
2023-04-10T08:45:46.557Z,100878.50
2023-04-10T08:48:16.546Z,100877.08
2023-04-10T08:50:46.455Z,100881.52
2023-04-10T08:53:17.270Z,100885.69
2023-04-10T08:55:54.176Z,100886.70
2023-04-10T08:58:27.113Z,100887.12
2023-04-10T09:01:02.034Z,100886.10
2023-04-10T09:03:32.720Z,100887.25
2023-04-10T09:06:03.940Z,100889.16
2023-04-10T09:08:33.570Z,100884.54
2023-04-10T09:11:05.854Z,100887.71
2023-04-10T09:13:39.766Z,100885.79
2023-04-10T09:16:13.977Z,100880.83
2023-04-10T09:18:50.056Z,100880.60
2023-04-10T09:21:21.421Z,100882.86
2023-04-10T09:23:55.623Z,100881.95
2023-04-10T09:26:25.223Z,100884.05
2023-04-10T09:29:01.972Z,100886.79
2023-04-10T09:31:34.805Z,100884.28
2023-04-10T09:34:08.268Z,100890.52
2023-04-10T09:36:38.360Z,100892.50
2023-04-10T09:39:10.020Z,100896.84
2023-04-10T09:41:53.933Z,100899.31
2023-04-10T09:44:35.523Z,100898.73
2023-04-10T09:47:14.709Z,100897.30
2023-04-10T09:49:51.005Z,100899.45
2023-04-10T09:52:31.692Z,100897.79
2023-04-10T09:55:03.305Z,100897.03
2023-04-10T09:57:34.080Z,100895.22
2023-04-10T10:00:11.258Z,100897.16
2023-04-10T10:02:42.798Z,100898.48
2023-04-10T10:05:12.259Z,100897.34
2023-04-10T10:07:43.033Z,100893.88
2023-04-10T10:10:12.515Z,100895.44
2023-04-10T10:12:46.502Z,100898.34
2023-04-10T10:15:22.467Z,100894.34
2023-04-10T10:18:09.058Z,100894.10
2023-04-10T10:20:38.694Z,100893.42
2023-04-10T10:23:08.167Z,100890.66
2023-04-10T10:25:39.693Z,100891.79
2023-04-10T10:28:09.218Z,100891.54
2023-04-10T10:30:45.373Z,100890.38
2023-04-10T10:33:15.647Z,100888.52
2023-04-10T10:35:44.560Z,100887.73
2023-04-10T10:38:13.887Z,100884.34
2023-04-10T10:40:50.639Z,100883.50
2023-04-10T10:43:22.797Z,100886.17
2023-04-10T10:45:54.916Z,100884.41
2023-04-10T10:48:25.623Z,100882.13
2023-04-10T10:51:00.368Z,100877.85
2023-04-10T10:53:47.042Z,100874.73
2023-04-10T10:56:18.620Z,100875.53
2023-04-10T10:58:52.453Z,100877.85
2023-04-10T11:01:23.170Z,100873.46
2023-04-10T11:03:56.615Z,100871.36
2023-04-10T11:06:55.291Z,100873.17
2023-04-10T11:09:51.326Z,100878.95
2023-04-10T11:12:23.035Z,100875.98
2023-04-10T11:14:59.678Z,100875.16
2023-04-10T11:17:50.404Z,100875.35
2023-04-10T11:20:30.301Z,100867.97
2023-04-10T11:23:14.887Z,100868.00
2023-04-10T11:25:54.588Z,100864.73
2023-04-10T11:28:34.140Z,100866.80
2023-04-10T11:31:19.979Z,100866.29
2023-04-10T11:33:49.960Z,100861.23
2023-04-10T11:36:21.511Z,100860.30
2023-04-10T11:39:10.785Z,100858.62
2023-04-10T11:41:40.457Z,100853.84
2023-04-10T11:44:13.456Z,100853.00
2023-04-10T11:46:43.120Z,100850.46
2023-04-10T11:49:11.900Z,100849.05
2023-04-10T11:51:41.402Z,100845.27
2023-04-10T11:54:11.432Z,100839.46
2023-04-10T11:56:42.319Z,100836.02
2023-04-10T11:59:15.631Z,100831.80
2023-04-10T12:01:47.384Z,100829.27
2023-04-10T12:04:18.435Z,100827.08
2023-04-10T12:06:49.528Z,100825.67
2023-04-10T12:09:19.802Z,100824.40
2023-04-10T12:11:57.486Z,100820.26
2023-04-10T12:14:35.527Z,100819.52
2023-04-10T12:17:06.233Z,100816.91
2023-04-10T12:19:53.552Z,100812.55
2023-04-10T12:22:22.450Z,100813.65
2023-04-10T12:24:53.770Z,100812.58
2023-04-10T12:27:29.168Z,100813.09
2023-04-10T12:29:58.761Z,100808.77
2023-04-10T12:32:28.859Z,100805.73
2023-04-10T12:34:58.692Z,100802.70
2023-04-10T12:37:49.225Z,100800.29
2023-04-10T12:40:18.730Z,100799.02
2023-04-10T12:42:48.305Z,100797.92
2023-04-10T12:45:17.471Z,100794.94
2023-04-10T12:47:47.624Z,100793.34
2023-04-10T12:50:20.340Z,100788.95
2023-04-10T12:53:03.405Z,100791.06
2023-04-10T12:55:34.217Z,100787.92
2023-04-10T12:58:18.400Z,100781.33
2023-04-10T13:00:47.940Z,100779.33
2023-04-10T13:03:17.576Z,100779.08
2023-04-10T13:05:53.028Z,100777.63
2023-04-10T13:08:22.957Z,100779.19
2023-04-10T13:10:55.888Z,100785.52
2023-04-10T13:13:26.439Z,100784.00
2023-04-10T13:15:56.505Z,100784.41
2023-04-10T13:18:30.122Z,100783.45
2023-04-10T13:20:59.477Z,100783.25
2023-04-10T13:23:30.266Z,100783.36
2023-04-10T13:25:59.955Z,100781.42
2023-04-10T13:28:28.777Z,100777.23
2023-04-10T13:30:59.517Z,100776.63
2023-04-10T13:33:28.698Z,100771.80
2023-04-10T13:35:58.385Z,100769.28
2023-04-10T13:38:28.204Z,100769.98
2023-04-10T13:40:57.956Z,100766.38
2023-04-10T13:43:29.088Z,100760.69
2023-04-10T13:45:58.500Z,100759.17
2023-04-10T13:48:37.294Z,100758.04
2023-04-10T13:51:16.452Z,100755.17
2023-04-10T13:53:50.776Z,100752.97
2023-04-10T13:56:20.160Z,100757.86
2023-04-10T13:58:54.005Z,100756.60
2023-04-10T14:01:23.735Z,100761.66
2023-04-10T14:03:53.878Z,100756.67
2023-04-10T14:06:24.114Z,100755.90
2023-04-10T14:08:54.111Z,100757.93
2023-04-10T14:11:23.697Z,100758.20
2023-04-10T14:13:56.599Z,100756.39
2023-04-10T14:16:30.545Z,100753.11
2023-04-10T14:18:59.801Z,100752.66
2023-04-10T14:21:35.158Z,100743.25
2023-04-10T14:24:04.076Z,100739.92
2023-04-10T14:26:33.207Z,100736.23
2023-04-10T14:29:02.645Z,100735.89
2023-04-10T14:31:31.755Z,100730.92
2023-04-10T14:34:00.791Z,100732.61
2023-04-10T14:36:30.562Z,100726.52
2023-04-10T14:39:00.142Z,100724.27
2023-04-10T14:41:30.475Z,100721.73
2023-04-10T14:43:59.833Z,100721.16
2023-04-10T14:46:28.915Z,100720.52
2023-04-10T14:48:57.637Z,100716.29
2023-04-10T14:51:26.915Z,100716.99
2023-04-10T14:53:56.374Z,100711.35
2023-04-10T14:56:28.148Z,100706.03
2023-04-10T14:58:58.519Z,100703.88
2023-04-10T15:01:27.548Z,100704.13
2023-04-10T15:03:56.963Z,100701.71
2023-04-10T15:06:28.518Z,100701.17
2023-04-10T15:08:57.492Z,100702.37
2023-04-10T15:11:33.236Z,100701.63
2023-04-10T15:14:02.818Z,100698.14
2023-04-10T15:16:31.944Z,100698.55
2023-04-10T15:19:04.989Z,100696.66
2023-04-10T15:21:34.713Z,100694.12
2023-04-10T15:24:03.543Z,100695.51
2023-04-10T15:26:42.335Z,100693.36
2023-04-10T15:29:11.487Z,100694.35
2023-04-10T15:31:40.601Z,100693.02
2023-04-10T15:34:10.143Z,100683.66
2023-04-10T15:36:38.997Z,100682.16
2023-04-10T15:39:08.200Z,100681.05
2023-04-10T15:41:38.501Z,100681.67
2023-04-10T15:44:07.497Z,100678.41
2023-04-10T15:46:40.429Z,100680.66
2023-04-10T15:49:10.953Z,100678.73
2023-04-10T15:51:41.275Z,100683.96
2023-04-10T15:54:11.685Z,100681.65
2023-04-10T15:56:42.916Z,100674.40
2023-04-10T15:59:12.687Z,100674.49
2023-04-10T16:01:41.906Z,100673.27
2023-04-10T16:04:13.249Z,100671.55
2023-04-10T16:06:44.360Z,100668.21
2023-04-10T16:09:24.666Z,100668.13
2023-04-10T16:11:58.966Z,100668.11
2023-04-10T16:14:29.566Z,100664.05
2023-04-10T16:17:01.505Z,100664.96
2023-04-10T16:19:39.338Z,100663.70
2023-04-10T16:22:10.478Z,100663.27
2023-04-10T16:24:39.303Z,100664.93
2023-04-10T16:27:11.040Z,100664.95
2023-04-10T16:29:40.653Z,100663.94
2023-04-10T16:32:12.651Z,100665.38
2023-04-10T16:34:41.936Z,100668.29
2023-04-10T16:37:10.856Z,100667.68
2023-04-10T16:39:40.805Z,100667.77
2023-04-10T16:42:09.665Z,100668.91
2023-04-10T16:44:40.064Z,100672.70
2023-04-10T16:47:10.222Z,100671.40
2023-04-10T16:49:46.078Z,100672.41
2023-04-10T16:52:16.635Z,100679.72
2023-04-10T16:54:49.024Z,100676.87
2023-04-10T16:57:18.619Z,100676.05
2023-04-10T16:59:47.696Z,100673.29
2023-04-10T17:02:18.139Z,100673.80
2023-04-10T17:04:48.266Z,100675.04
2023-04-10T17:07:20.858Z,100676.79
2023-04-10T17:09:51.616Z,100675.16
2023-04-10T17:12:23.863Z,100677.85
2023-04-10T17:14:54.460Z,100681.53
2023-04-10T17:17:23.545Z,100679.34
2023-04-10T17:19:53.079Z,100679.03
2023-04-10T17:22:41.534Z,100680.02
2023-04-10T17:25:11.558Z,100678.99
2023-04-10T17:27:42.061Z,100684.85
2023-04-10T17:30:17.083Z,100690.38
2023-04-10T17:32:49.306Z,100686.71
2023-04-10T17:35:19.691Z,100681.54
2023-04-10T17:37:49.688Z,100680.42
2023-04-10T17:40:19.207Z,100679.99
2023-04-10T17:42:52.761Z,100682.77
2023-04-10T17:45:23.708Z,100681.95
2023-04-10T17:47:56.687Z,100685.29
2023-04-10T17:50:29.117Z,100685.77
2023-04-10T17:52:58.197Z,100687.20
2023-04-10T17:55:27.229Z,100687.16
2023-04-10T17:57:59.972Z,100687.42
2023-04-10T18:00:31.933Z,100687.86
2023-04-10T18:03:03.078Z,100687.73
2023-04-10T18:05:32.567Z,100686.38
2023-04-10T18:08:02.391Z,100688.46
2023-04-10T18:10:32.673Z,100688.22
2023-04-10T18:13:02.728Z,100687.95
2023-04-10T18:15:32.399Z,100689.70
2023-04-10T18:18:03.259Z,100689.83
2023-04-10T18:20:31.970Z,100692.23
2023-04-10T18:23:02.059Z,100691.92
2023-04-10T18:25:33.378Z,100692.89
2023-04-10T18:30:55.770Z,100698.32
2023-04-10T18:33:25.937Z,100699.36
2023-04-10T18:35:59.650Z,100699.52
2023-04-10T18:38:29.637Z,100698.48
2023-04-10T18:41:01.364Z,100701.01
2023-04-10T18:43:32.941Z,100693.88
2023-04-10T18:46:11.512Z,100692.50
2023-04-10T18:48:51.319Z,100692.40
2023-04-10T18:51:22.361Z,100695.73
2023-04-10T18:53:52.792Z,100697.91
2023-04-10T18:56:24.404Z,100696.90
2023-04-10T18:58:53.724Z,100697.94
2023-04-10T19:01:23.704Z,100698.84
2023-04-10T19:03:58.035Z,100701.80
2023-04-10T19:08:56.487Z,100707.36
2023-04-10T19:11:29.581Z,100707.70
2023-04-10T19:14:06.802Z,100706.41
2023-04-10T19:16:36.917Z,100707.44
2023-04-10T19:19:06.906Z,100701.17
2023-04-10T19:21:42.677Z,100703.89
2023-04-10T19:24:14.658Z,100705.20
2023-04-10T19:26:44.873Z,100704.85
2023-04-10T19:29:14.789Z,100704.91
2023-04-10T19:31:52.957Z,100708.02
2023-04-10T19:34:23.474Z,100709.95
2023-04-10T19:36:57.997Z,100706.49
2023-04-10T19:39:27.140Z,100702.86
2023-04-10T19:41:58.434Z,100699.83
2023-04-10T19:44:28.557Z,100697.83
2023-04-10T19:47:05.119Z,100696.23
2023-04-10T19:49:38.134Z,100698.75
2023-04-10T19:52:12.762Z,100703.20
2023-04-10T19:54:44.499Z,100697.88
2023-04-10T19:57:14.515Z,100693.79
2023-04-10T19:59:45.941Z,100689.02
2023-04-10T20:02:17.420Z,100688.13
2023-04-10T20:04:48.839Z,100685.20
2023-04-10T20:07:26.059Z,100691.79
2023-04-10T20:09:57.913Z,100690.45
2023-04-10T20:12:27.704Z,100691.17
2023-04-10T20:15:05.403Z,100686.85
2023-04-10T20:17:35.842Z,100685.95
2023-04-10T20:20:06.155Z,100686.63
2023-04-10T20:22:40.394Z,100689.42
2023-04-10T20:25:09.961Z,100684.33
2023-04-10T20:27:39.483Z,100682.14
2023-04-10T20:30:14.951Z,100683.50
2023-04-10T20:32:48.365Z,100684.63
2023-04-10T20:35:21.952Z,100684.00
2023-04-10T20:37:52.103Z,100682.64
2023-04-10T20:40:21.624Z,100682.07
2023-04-10T20:42:51.219Z,100681.85
2023-04-10T20:45:19.943Z,100679.66
2023-04-10T20:47:50.075Z,100680.36
2023-04-10T20:50:19.996Z,100679.09
2023-04-10T20:52:53.283Z,100683.66
2023-04-10T20:55:24.324Z,100686.38
2023-04-10T20:57:55.000Z,100680.34
2023-04-10T21:00:31.740Z,100677.57
2023-04-10T21:03:01.835Z,100674.38
2023-04-10T21:05:31.704Z,100672.44
2023-04-10T21:08:01.474Z,100668.28
2023-04-10T21:10:32.155Z,100669.14
2023-04-10T21:13:04.213Z,100670.02
2023-04-10T21:15:40.337Z,100669.55
2023-04-10T21:18:11.788Z,100665.66
2023-04-10T21:20:43.985Z,100668.39
2023-04-10T21:23:14.319Z,100670.67
2023-04-10T21:25:50.537Z,100670.86
2023-04-10T21:28:22.347Z,100668.47
2023-04-10T21:30:51.590Z,100670.52
2023-04-10T21:33:24.296Z,100668.39
2023-04-10T21:35:53.138Z,100668.55
2023-04-10T21:38:24.707Z,100667.34
2023-04-10T21:40:53.797Z,100666.35
2023-04-10T21:43:30.891Z,100670.00
2023-04-10T21:46:08.902Z,100671.45
2023-04-10T21:48:39.566Z,100669.80
2023-04-10T21:51:10.136Z,100668.08
2023-04-10T21:53:40.268Z,100664.54
2023-04-10T21:56:09.439Z,100663.08
2023-04-10T21:58:40.031Z,100663.85
2023-04-10T22:01:08.871Z,100659.09
2023-04-10T22:03:39.159Z,100659.38
2023-04-10T22:06:12.218Z,100657.58
2023-04-10T22:08:43.907Z,100660.30
2023-04-10T22:11:13.750Z,100657.36
2023-04-10T22:13:45.355Z,100655.27
2023-04-10T22:16:14.525Z,100653.99
2023-04-10T22:18:48.581Z,100650.90
2023-04-10T22:21:17.947Z,100646.23
2023-04-10T22:23:50.011Z,100646.80
2023-04-10T22:26:21.393Z,100646.29
2023-04-10T22:28:51.472Z,100645.05
2023-04-10T22:31:20.599Z,100644.20
2023-04-10T22:33:50.853Z,100639.80
2023-04-10T22:36:23.177Z,100642.23
2023-04-10T22:38:54.237Z,100639.98
2023-04-10T22:41:23.299Z,100642.92
2023-04-10T22:43:52.034Z,100640.10
2023-04-10T22:46:23.615Z,100639.34
2023-04-10T22:48:52.457Z,100635.88
2023-04-10T22:51:22.681Z,100636.77
2023-04-10T22:53:52.987Z,100634.02
2023-04-10T22:56:29.979Z,100629.53
2023-04-10T22:59:02.345Z,100628.46
2023-04-10T23:01:32.828Z,100625.11
2023-04-10T23:04:02.104Z,100624.55
2023-04-10T23:06:34.015Z,100622.16
2023-04-10T23:09:04.090Z,100617.48
2023-04-10T23:11:39.394Z,100613.95
2023-04-10T23:14:09.177Z,100608.19
2023-04-10T23:16:40.128Z,100610.36
2023-04-10T23:19:09.200Z,100608.36
2023-04-10T23:21:39.558Z,100611.63
2023-04-10T23:24:11.456Z,100609.34
2023-04-10T23:26:43.075Z,100609.58
2023-04-10T23:29:13.173Z,100603.44
2023-04-10T23:31:42.382Z,100599.96
2023-04-10T23:34:13.145Z,100594.60
2023-04-10T23:36:43.855Z,100593.69
2023-04-10T23:39:14.216Z,100591.43
2023-04-10T23:41:48.335Z,100591.51
2023-04-10T23:44:17.186Z,100591.05
2023-04-10T23:46:47.767Z,100586.17
2023-04-10T23:49:18.439Z,100584.30
2023-04-10T23:51:47.608Z,100585.83
2023-04-10T23:54:18.741Z,100581.68
2023-04-10T23:56:52.235Z,100577.34
2023-04-10T23:59:22.304Z,100578.90
